Time;durP1;ratioP1;P1;durP2;ratioP2;P2;SDS_P1;SDS_P2;PMS_P1;PMS_P2;Temp;Humidity;BMP_temperature;BMP_pressure;BME280_temperature;BME280_humidity;BME280_pressure;Samples;Min_cycle;Max_cycle;Signal;HPM_P1;HPM_P2
2022/08/26 00:01:52;;;;;;;4.85;4.65;;;25.70;65.70;;;;;;5108578;27;43420;-73
2022/08/26 00:04:22;;;;;;;5.53;5.22;;;25.60;66.10;;;;;;5085614;28;45991;-73
2022/08/26 00:06:51;;;;;;;4.82;4.53;;;25.60;66.10;;;;;;5069704;28;45922;-73
2022/08/26 00:09:19;;;;;;;4.70;4.50;;;25.60;66.10;;;;;;5106260;27;43998;-71
2022/08/26 00:11:47;;;;;;;4.70;4.50;;;25.60;66.20;;;;;;5107240;27;43636;-73
2022/08/26 00:14:15;;;;;;;4.90;4.63;;;25.50;66.50;;;;;;5108158;27;45139;-73
2022/08/26 00:16:45;;;;;;;4.82;4.63;;;25.60;66.50;;;;;;5103454;27;43911;-73
2022/08/26 00:19:15;;;;;;;4.70;4.50;;;25.60;66.20;;;;;;5081751;27;44484;-74
2022/08/26 00:21:43;;;;;;;5.47;5.18;;;25.70;65.90;;;;;;5108047;27;44003;-73
2022/08/26 00:24:12;;;;;;;4.38;4.28;;;25.80;65.50;;;;;;5107798;27;43861;-72
2022/08/26 00:26:40;;;;;;;4.55;4.35;;;25.80;65.20;;;;;;5107606;27;43936;-73
2022/08/26 00:29:09;;;;;;;4.53;4.43;;;25.80;65.20;;;;;;5089164;27;44115;-73
2022/08/26 00:31:37;;;;;;;4.43;4.22;;;25.70;65.80;;;;;;5108422;27;43450;-73
2022/08/26 00:34:08;;;;;;;4.60;4.40;;;25.70;65.90;;;;;;5088887;27;47322;-73
2022/08/26 00:36:38;;;;;;;4.85;4.65;;;25.70;65.90;;;;;;5107855;27;43979;-73
2022/08/26 00:39:07;;;;;;;4.88;4.68;;;25.60;66.00;;;;;;5094445;27;44003;-73
2022/08/26 00:41:37;;;;;;;4.68;4.53;;;25.60;66.30;;;;;;5107855;27;43776;-73
2022/08/26 00:44:06;;;;;;;4.55;4.38;;;25.60;66.40;;;;;;5087392;27;43877;-72
2022/08/26 00:46:35;;;;;;;5.00;4.67;;;25.60;66.20;;;;;;5069355;28;44863;-73
2022/08/26 00:49:05;;;;;;;4.30;4.10;;;25.70;65.90;;;;;;5087685;27;43991;-73
2022/08/26 00:51:44;;;;;;;4.60;4.40;;;25.80;65.50;;;;;;5093628;27;43424;-73
2022/08/26 00:54:12;;;;;;;4.30;4.10;;;25.80;65.10;;;;;;5068472;27;43933;-74
2022/08/26 00:56:43;;;;;;;4.60;4.50;;;25.80;65.20;;;;;;5069152;27;45086;-73
2022/08/26 00:59:14;;;;;;;4.03;3.83;;;25.70;65.50;;;;;;5069258;27;44029;-74
2022/08/26 01:01:44;;;;;;;4.15;3.95;;;25.70;65.60;;;;;;5087741;27;44016;-74
2022/08/26 01:04:14;;;;;;;3.92;3.83;;;25.60;65.60;;;;;;5087727;27;43999;-73
2022/08/26 01:06:43;;;;;;;3.95;3.85;;;25.60;65.70;;;;;;5096945;27;43964;-73
2022/08/26 01:09:11;;;;;;;3.90;3.80;;;25.50;65.70;;;;;;5107687;27;43377;-72
2022/08/26 01:11:39;;;;;;;4.03;3.92;;;25.50;65.90;;;;;;5107630;27;43820;-72
2022/08/26 01:14:07;;;;;;;4.45;4.30;;;25.50;66.00;;;;;;5106624;27;43987;-73
2022/08/26 01:16:36;;;;;;;4.13;4.03;;;25.40;66.00;;;;;;5078055;28;45420;-73
2022/08/26 01:19:07;;;;;;;4.00;3.90;;;25.40;66.70;;;;;;5086590;27;44335;-74
2022/08/26 01:21:38;;;;;;;3.88;3.78;;;25.40;67.10;;;;;;5088163;27;43943;-73
2022/08/26 01:24:09;;;;;;;4.20;4.10;;;25.50;66.70;;;;;;5068415;28;45609;-74
2022/08/26 01:26:40;;;;;;;4.10;4.00;;;25.70;66.10;;;;;;5073909;27;46014;-74
2022/08/26 01:29:10;;;;;;;3.65;3.55;;;25.90;65.40;;;;;;5088265;27;43398;-74
2022/08/26 01:31:40;;;;;;;3.60;3.50;;;26.20;64.60;;;;;;5107318;27;43964;-73
2022/08/26 01:34:12;;;;;;;4.03;3.92;;;26.50;63.80;;;;;;5106537;27;43969;-74
2022/08/26 01:36:40;;;;;;;3.83;3.72;;;26.70;62.80;;;;;;5086623;28;43866;-73
2022/08/26 01:39:10;;;;;;;3.83;3.72;;;26.90;62.00;;;;;;5086582;27;43975;-73
2022/08/26 01:41:39;;;;;;;3.85;3.75;;;27.10;61.50;;;;;;5086918;28;43929;-73
2022/08/26 01:44:14;;;;;;;3.90;3.80;;;27.20;61.20;;;;;;5093549;27;45058;-73
2022/08/26 01:46:42;;;;;;;3.78;3.67;;;27.30;60.80;;;;;;5106047;27;44056;-73
2022/08/26 01:49:10;;;;;;;3.53;3.42;;;27.40;60.50;;;;;;5106520;27;43999;-74
2022/08/26 01:51:38;;;;;;;3.55;3.45;;;27.40;60.30;;;;;;5088297;27;44020;-73
2022/08/26 01:54:07;;;;;;;3.63;3.53;;;27.40;60.40;;;;;;5105945;27;43854;-73
2022/08/26 01:56:41;;;;;;;4.05;3.75;;;27.30;60.80;;;;;;5106052;27;43755;-73
2022/08/26 01:59:11;;;;;;;3.60;3.50;;;27.00;61.10;;;;;;5078914;27;43504;-73
2022/08/26 02:01:40;;;;;;;3.60;3.50;;;26.80;62.20;;;;;;5096269;27;43830;-72
2022/08/26 02:04:13;;;;;;;3.58;3.47;;;26.60;62.60;;;;;;5106288;27;44827;-73
2022/08/26 02:06:41;;;;;;;3.35;3.25;;;26.50;62.70;;;;;;5104239;27;43843;-73
2022/08/26 02:09:09;;;;;;;3.38;3.28;;;26.40;62.80;;;;;;5080961;27;43976;-74
2022/08/26 02:11:37;;;;;;;3.70;3.60;;;26.20;63.90;;;;;;5106775;27;44194;-73
2022/08/26 02:14:09;;;;;;;3.55;3.45;;;26.10;64.10;;;;;;5105599;27;43777;-73
2022/08/26 02:16:40;;;;;;;3.55;3.45;;;26.10;64.10;;;;;;5106431;27;43947;-74
2022/08/26 02:19:10;;;;;;;3.22;3.20;;;26.00;64.00;;;;;;5106249;27;44017;-72
2022/08/26 02:21:44;;;;;;;3.15;3.15;;;26.00;64.70;;;;;;5087609;27;44193;-72
2022/08/26 02:24:19;;;;;;;3.25;3.15;;;25.90;65.20;;;;;;5086355;27;43925;-73
2022/08/26 02:26:47;;;;;;;3.55;3.45;;;25.90;65.10;;;;;;5085504;27;43991;-74
2022/08/26 02:29:20;;;;;;;3.20;3.10;;;26.10;64.70;;;;;;5086586;27;43328;-74
2022/08/26 02:31:48;;;;;;;3.45;3.35;;;26.20;64.30;;;;;;5075019;27;44159;-73
2022/08/26 02:34:19;;;;;;;3.25;3.15;;;26.30;63.90;;;;;;5106224;27;43819;-73
2022/08/26 02:36:48;;;;;;;3.10;3.00;;;26.30;63.80;;;;;;5105427;27;43972;-72
2022/08/26 02:39:17;;;;;;;2.95;2.95;;;26.20;64.40;;;;;;5073493;27;43971;-73
2022/08/26 02:41:49;;;;;;;3.67;3.58;;;26.10;64.40;;;;;;5067537;27;44086;-73
2022/08/26 02:44:19;;;;;;;3.08;3.08;;;26.10;64.50;;;;;;5085877;27;44076;-73
2022/08/26 02:46:47;;;;;;;3.13;3.03;;;26.00;64.50;;;;;;5067005;27;44639;-72
2022/08/26 02:49:15;;;;;;;3.20;3.10;;;25.90;64.60;;;;;;5086163;27;43852;-73
2022/08/26 02:51:44;;;;;;;3.22;3.13;;;25.90;65.30;;;;;;5086158;27;43382;-72
2022/08/26 02:54:12;;;;;;;3.35;3.25;;;25.80;65.30;;;;;;5085744;27;43960;-72
2022/08/26 02:56:40;;;;;;;3.20;3.10;;;25.80;65.30;;;;;;5085626;27;44118;-73
2022/08/26 02:59:11;;;;;;;3.50;3.40;;;25.80;65.50;;;;;;5085962;27;43967;-73
2022/08/26 03:01:40;;;;;;;3.28;3.17;;;25.70;65.80;;;;;;5086393;27;43893;-73
2022/08/26 03:04:10;;;;;;;3.38;3.28;;;25.70;65.90;;;;;;5094818;27;43870;-73
2022/08/26 03:06:39;;;;;;;3.05;3.03;;;25.70;65.80;;;;;;5105488;27;43371;-72
2022/08/26 03:09:08;;;;;;;3.17;3.08;;;25.90;65.30;;;;;;5105266;27;43868;-73
2022/08/26 03:11:46;;;;;;;2.93;2.93;;;26.00;64.90;;;;;;5105608;27;44066;-73
2022/08/26 03:14:14;;;;;;;3.10;3.00;;;26.10;64.60;;;;;;5105682;27;44797;-74
2022/08/26 03:16:44;;;;;;;3.08;2.97;;;26.00;64.30;;;;;;5087989;27;43902;-73
2022/08/26 03:19:15;;;;;;;3.15;3.05;;;25.90;64.70;;;;;;5082419;27;43964;-74
2022/08/26 03:21:44;;;;;;;3.30;3.20;;;25.90;65.00;;;;;;5090287;27;43975;-73
2022/08/26 03:24:16;;;;;;;3.08;2.97;;;25.90;64.90;;;;;;5108685;27;43981;-72
2022/08/26 03:26:44;;;;;;;3.08;3.00;;;25.80;64.90;;;;;;5107671;27;44070;-74
2022/08/26 03:32:07;;;;;;;2.90;2.90;;;25.70;65.60;;;;;;5109000;27;43463;-73
2022/08/26 03:34:35;;;;;;;2.88;2.88;;;25.70;65.70;;;;;;5073893;27;44441;-73
2022/08/26 03:37:03;;;;;;;2.97;2.97;;;25.60;65.80;;;;;;5070373;27;45604;-73
2022/08/26 03:39:32;;;;;;;3.00;2.90;;;25.60;66.20;;;;;;5098298;27;44018;-73
2022/08/26 03:42:00;;;;;;;2.90;2.90;;;25.60;66.20;;;;;;5108774;27;44049;-73
2022/08/26 03:44:28;;;;;;;2.80;2.80;;;25.70;66.10;;;;;;5108707;27;43919;-73
2022/08/26 03:46:56;;;;;;;2.78;2.78;;;25.80;65.70;;;;;;5089915;27;44402;-73
2022/08/26 03:49:26;;;;;;;2.78;2.78;;;25.90;65.20;;;;;;5108272;27;43885;-72
2022/08/26 03:51:55;;;;;;;2.70;2.70;;;26.00;65.50;;;;;;5108764;27;43900;-73
2022/08/26 03:54:23;;;;;;;2.72;2.72;;;25.90;64.70;;;;;;5108579;27;44032;-73
2022/08/26 03:56:52;;;;;;;2.95;2.90;;;25.90;65.00;;;;;;5089471;27;45659;-74
2022/08/26 03:59:20;;;;;;;2.85;2.85;;;25.90;65.30;;;;;;5073112;28;43973;-74
2022/08/26 04:01:48;;;;;;;3.03;3.03;;;25.80;66.10;;;;;;5070341;28;43969;-73
2022/08/26 04:04:17;;;;;;;2.80;2.80;;;25.80;65.40;;;;;;5105939;27;43958;-73
2022/08/26 04:06:55;;;;;;;2.73;2.73;;;25.70;65.60;;;;;;5107620;27;43437;-72
2022/08/26 04:09:23;;;;;;;2.90;2.90;;;25.70;66.00;;;;;;5108369;27;43396;-74
2022/08/26 04:11:51;;;;;;;3.25;3.15;;;25.60;65.90;;;;;;5107914;27;43865;-73
2022/08/26 04:14:21;;;;;;;2.67;2.67;;;25.60;65.60;;;;;;5107926;27;43997;-72
2022/08/26 04:16:49;;;;;;;2.85;2.85;;;25.60;66.00;;;;;;5107672;27;44132;-73
2022/08/26 04:19:18;;;;;;;2.53;2.53;;;25.60;66.30;;;;;;5107913;27;44054;-73
2022/08/26 04:21:46;;;;;;;2.60;2.60;;;25.60;66.20;;;;;;5111633;27;44003;-73
2022/08/26 04:24:16;;;;;;;2.80;2.80;;;25.70;66.10;;;;;;5128361;27;44482;-74
2022/08/26 04:26:44;;;;;;;2.67;2.67;;;25.80;65.50;;;;;;5128134;27;44143;-71
2022/08/26 04:29:13;;;;;;;2.50;2.50;;;25.90;65.10;;;;;;5086203;28;43964;-74
2022/08/26 04:31:42;;;;;;;2.85;2.85;;;25.90;64.90;;;;;;5087651;28;43929;-73
2022/08/26 04:34:10;;;;;;;2.72;2.72;;;25.90;65.10;;;;;;5081616;28;44010;-73
2022/08/26 04:36:41;;;;;;;2.63;2.63;;;25.80;65.50;;;;;;5068119;28;43945;-73
2022/08/26 04:39:12;;;;;;;2.97;2.88;;;25.80;65.70;;;;;;5067689;28;43909;-73
2022/08/26 04:41:42;;;;;;;3.20;3.10;;;25.70;65.40;;;;;;5081350;28;44002;-73
2022/08/26 04:44:10;;;;;;;2.80;2.80;;;25.70;65.60;;;;;;5087218;28;43945;-73
2022/08/26 04:46:38;;;;;;;2.88;2.88;;;25.60;66.10;;;;;;5085124;28;44817;-73
2022/08/26 04:49:11;;;;;;;2.78;2.78;;;25.60;66.90;;;;;;5073048;28;43455;-73
2022/08/26 04:51:39;;;;;;;2.53;2.53;;;25.60;66.00;;;;;;5068191;28;43896;-73
2022/08/26 04:54:07;;;;;;;2.50;2.50;;;25.60;66.00;;;;;;5048858;28;46015;-74
2022/08/26 04:56:36;;;;;;;2.60;2.60;;;25.60;66.50;;;;;;5049144;28;44979;-72
2022/08/26 04:59:06;;;;;;;2.78;2.78;;;25.60;67.20;;;;;;5068339;28;43411;-73
2022/08/26 05:01:44;;;;;;;2.60;2.60;;;25.60;66.20;;;;;;5067816;28;44220;-73
2022/08/26 05:04:12;;;;;;;2.77;2.77;;;25.70;65.80;;;;;;5067409;28;44045;-72
2022/08/26 05:06:43;;;;;;;2.67;2.67;;;25.80;65.30;;;;;;5059204;28;44423;-71
2022/08/26 05:09:11;;;;;;;2.42;2.42;;;25.80;65.30;;;;;;5077445;28;44026;-73
2022/08/26 05:11:42;;;;;;;2.50;2.50;;;25.80;65.30;;;;;;5067818;28;43803;-73
2022/08/26 05:14:11;;;;;;;2.60;2.60;;;25.70;65.90;;;;;;5067373;28;44983;-73
2022/08/26 05:16:39;;;;;;;2.65;2.65;;;25.70;66.00;;;;;;5067387;28;44031;-74
2022/08/26 05:19:08;;;;;;;2.70;2.70;;;25.60;65.90;;;;;;5067230;28;43992;-73
2022/08/26 05:21:37;;;;;;;2.40;2.40;;;25.60;65.90;;;;;;5073982;28;44010;-74
2022/08/26 05:24:05;;;;;;;2.50;2.50;;;25.60;66.50;;;;;;5053037;28;46140;-73
2022/08/26 05:26:34;;;;;;;2.50;2.50;;;25.60;66.50;;;;;;5075706;28;44120;-74
2022/08/26 05:29:02;;;;;;;2.38;2.38;;;25.60;66.40;;;;;;5086498;27;43965;-74
2022/08/26 05:31:32;;;;;;;2.80;2.70;;;25.50;67.10;;;;;;5088140;27;44039;-73
2022/08/26 05:34:01;;;;;;;2.57;2.57;;;25.50;66.80;;;;;;5087310;27;44901;-74
2022/08/26 05:36:32;;;;;;;2.40;2.40;;;25.50;66.60;;;;;;5087210;27;44106;-74
2022/08/26 05:39:00;;;;;;;2.43;2.43;;;25.60;66.60;;;;;;5074712;27;43506;-73
2022/08/26 05:41:31;;;;;;;2.38;2.38;;;25.70;66.20;;;;;;5088350;27;43944;-74
2022/08/26 05:44:03;;;;;;;2.80;2.80;;;25.80;66.50;;;;;;5106832;27;43881;-73
2022/08/26 05:46:33;;;;;;;2.22;2.22;;;25.80;65.30;;;;;;5107136;27;43981;-73
2022/08/26 05:49:02;;;;;;;2.30;2.30;;;25.80;65.30;;;;;;5087414;27;44046;-73
2022/08/26 05:51:30;;;;;;;2.40;2.40;;;25.80;65.60;;;;;;5069563;27;43968;-72
2022/08/26 05:53:59;;;;;;;2.30;2.30;;;25.70;65.80;;;;;;5087304;27;43942;-73
2022/08/26 05:56:27;;;;;;;2.50;2.50;;;25.70;66.50;;;;;;5072339;27;44276;-73
2022/08/26 05:58:56;;;;;;;2.60;2.50;;;25.70;65.80;;;;;;5106509;27;43933;-74
2022/08/26 06:01:26;;;;;;;2.30;2.30;;;25.60;66.10;;;;;;5100083;27;43895;-73
2022/08/26 06:03:57;;;;;;;2.65;2.65;;;25.60;66.40;;;;;;5086985;27;44813;-73
2022/08/26 06:06:29;;;;;;;2.42;2.42;;;25.60;66.40;;;;;;5086938;27;44018;-74
2022/08/26 06:08:58;;;;;;;2.37;2.37;;;25.50;66.30;;;;;;5068712;27;43377;-72
2022/08/26 06:11:26;;;;;;;2.43;2.43;;;25.50;67.30;;;;;;5088772;27;44018;-74
2022/08/26 06:13:55;;;;;;;2.40;2.40;;;25.50;66.70;;;;;;5106542;27;44125;-73
2022/08/26 06:16:30;;;;;;;2.30;2.30;;;25.60;66.80;;;;;;5106477;27;44497;-73
2022/08/26 06:18:59;;;;;;;2.25;2.25;;;25.60;67.10;;;;;;5106591;27;43912;-72
2022/08/26 06:21:28;;;;;;;2.80;2.60;;;25.70;65.90;;;;;;5090568;27;44277;-74
2022/08/26 06:26:48;;;;;;;2.30;2.30;;;25.80;65.20;;;;;;5086556;27;43924;-72
2022/08/26 06:29:17;;;;;;;2.40;2.40;;;25.70;65.70;;;;;;5068427;28;43972;-73
2022/08/26 06:31:51;;;;;;;2.37;2.37;;;25.70;66.00;;;;;;5094134;27;43491;-72
2022/08/26 06:34:21;;;;;;;2.20;2.20;;;25.60;65.80;;;;;;5087707;27;46573;-73
2022/08/26 06:36:49;;;;;;;2.40;2.40;;;25.60;65.80;;;;;;5104810;27;44123;-72
2022/08/26 06:39:20;;;;;;;2.33;2.33;;;25.60;66.20;;;;;;5068212;27;43874;-72
2022/08/26 06:41:48;;;;;;;2.40;2.23;;;25.60;66.60;;;;;;5094542;27;43525;-72
2022/08/26 06:44:17;;;;;;;2.30;2.30;;;25.50;66.40;;;;;;5087634;27;45632;-74
2022/08/26 06:46:45;;;;;;;2.40;2.40;;;25.50;66.50;;;;;;5087267;27;44342;-72
2022/08/26 06:49:17;;;;;;;2.40;2.40;;;25.50;66.50;;;;;;5106316;27;43375;-73
2022/08/26 06:51:56;;;;;;;2.20;2.20;;;25.50;67.00;;;;;;5107052;27;43378;-72
2022/08/26 06:54:25;;;;;;;2.38;2.38;;;25.50;66.90;;;;;;5109724;27;43859;-73
2022/08/26 06:56:55;;;;;;;2.45;2.35;;;25.60;66.60;;;;;;5080381;28;44479;-73
2022/08/26 06:59:23;;;;;;;2.40;2.40;;;25.70;66.20;;;;;;5088753;27;44066;-72
2022/08/26 07:01:51;;;;;;;2.20;2.20;;;25.70;65.70;;;;;;5109805;27;43917;-73
2022/08/26 07:04:20;;;;;;;2.30;2.30;;;25.70;66.50;;;;;;5097900;27;44005;-73
2022/08/26 07:06:50;;;;;;;2.40;2.33;;;25.70;65.80;;;;;;5089134;27;44023;-73
2022/08/26 07:09:21;;;;;;;2.40;2.40;;;25.60;66.40;;;;;;5089373;27;43999;-73
2022/08/26 07:11:50;;;;;;;2.40;2.40;;;25.60;66.50;;;;;;5109685;27;43953;-73
2022/08/26 07:14:18;;;;;;;2.20;2.20;;;25.60;66.30;;;;;;5090209;27;43928;-74
2022/08/26 07:16:48;;;;;;;2.40;2.40;;;25.50;66.20;;;;;;5077859;28;45311;-73
2022/08/26 07:19:17;;;;;;;2.55;2.55;;;25.50;66.90;;;;;;5089741;27;44074;-73
2022/08/26 07:21:57;;;;;;;2.20;2.20;;;25.50;66.80;;;;;;5089547;27;43995;-73
2022/08/26 07:24:26;;;;;;;2.50;2.50;;;25.50;66.80;;;;;;5089149;27;43932;-73
2022/08/26 07:26:59;;;;;;;2.37;2.37;;;25.40;66.70;;;;;;5070034;27;44372;-74
2022/08/26 07:29:28;;;;;;;2.20;2.20;;;25.40;67.20;;;;;;5089745;27;44007;-74
2022/08/26 07:31:56;;;;;;;2.35;2.35;;;25.50;67.20;;;;;;5089464;27;44054;-73
2022/08/26 07:34:24;;;;;;;2.20;2.20;;;25.60;66.90;;;;;;5089435;27;44349;-73
2022/08/26 07:36:53;;;;;;;2.40;2.40;;;25.60;66.50;;;;;;5097050;27;43921;-73
2022/08/26 07:39:22;;;;;;;2.30;2.30;;;25.70;66.20;;;;;;5090423;27;44161;-74
2022/08/26 07:41:51;;;;;;;2.30;2.20;;;25.70;65.90;;;;;;5089997;27;43520;-73
2022/08/26 07:44:19;;;;;;;2.40;2.40;;;25.70;65.80;;;;;;5089919;27;46894;-72
2022/08/26 07:46:47;;;;;;;2.45;2.45;;;25.60;66.20;;;;;;5108275;27;44023;-73
2022/08/26 07:49:20;;;;;;;2.57;2.57;;;25.60;66.40;;;;;;5093180;27;43976;-73
2022/08/26 07:51:49;;;;;;;2.50;2.50;;;25.60;66.30;;;;;;5089104;27;44051;-72
2022/08/26 07:54:17;;;;;;;2.40;2.40;;;25.60;66.30;;;;;;5088971;27;43865;-73
2022/08/26 07:56:46;;;;;;;2.47;2.47;;;25.50;66.90;;;;;;5070558;27;44964;-73
2022/08/26 07:59:16;;;;;;;2.30;2.20;;;25.50;67.00;;;;;;5070099;27;44106;-73
2022/08/26 08:01:44;;;;;;;2.20;2.10;;;25.50;66.90;;;;;;5089046;27;43966;-74
2022/08/26 08:04:13;;;;;;;2.40;2.40;;;25.50;66.80;;;;;;5087501;27;43964;-72
2022/08/26 08:06:41;;;;;;;2.20;2.20;;;25.40;67.20;;;;;;5098449;27;43414;-73
2022/08/26 08:09:10;;;;;;;2.10;2.10;;;25.40;67.40;;;;;;5108871;27;43458;-73
2022/08/26 08:11:39;;;;;;;2.30;2.30;;;25.50;67.10;;;;;;5090318;27;43948;-73
2022/08/26 08:14:07;;;;;;;2.27;2.27;;;25.60;66.80;;;;;;5108081;27;44124;-74
2022/08/26 08:16:40;;;;;;;2.20;2.20;;;25.70;66.40;;;;;;5108496;27;43996;-72
2022/08/26 08:19:14;;;;;;;2.20;2.20;;;25.80;66.30;;;;;;5108448;27;44064;-73
2022/08/26 08:21:42;;;;;;;2.30;2.30;;;25.70;66.10;;;;;;5108398;27;43948;-73
2022/08/26 08:24:10;;;;;;;2.30;2.20;;;25.60;66.30;;;;;;5107933;27;45103;-72
2022/08/26 08:26:38;;;;;;;2.10;2.10;;;25.60;66.70;;;;;;5108186;27;44101;-74
2022/08/26 08:29:07;;;;;;;2.20;2.20;;;25.60;66.60;;;;;;5096041;27;44063;-73
2022/08/26 08:31:35;;;;;;;2.30;2.30;;;25.60;66.40;;;;;;5101033;27;43363;-72
2022/08/26 08:34:25;;;;;;;2.40;2.40;;;25.50;66.90;;;;;;5107393;27;44479;-72
2022/08/26 08:36:53;;;;;;;2.27;2.20;;;25.50;67.20;;;;;;5107632;27;44130;-72
2022/08/26 08:39:21;;;;;;;2.17;2.17;;;25.50;67.10;;;;;;5108001;27;43919;-73
2022/08/26 08:41:58;;;;;;;2.20;2.20;;;25.50;66.90;;;;;;5108104;27;43904;-74
2022/08/26 08:44:26;;;;;;;2.08;2.08;;;25.40;67.40;;;;;;5089096;27;45648;-73
2022/08/26 08:47:01;;;;;;;2.20;2.20;;;25.40;67.40;;;;;;5107657;27;43975;-73
2022/08/26 08:49:30;;;;;;;2.17;2.17;;;25.50;67.20;;;;;;5089417;27;43461;-72
2022/08/26 08:52:00;;;;;;;2.20;2.20;;;25.60;66.80;;;;;;5088948;27;44268;-73
2022/08/26 08:54:28;;;;;;;2.33;2.33;;;25.60;66.40;;;;;;5107707;27;43902;-72
2022/08/26 08:56:59;;;;;;;2.20;2.20;;;25.60;66.40;;;;;;5089028;27;45804;-73
2022/08/26 08:59:28;;;;;;;2.23;2.23;;;25.60;66.30;;;;;;5108048;27;44364;-72
2022/08/26 09:02:01;;;;;;;2.30;2.30;;;25.60;66.70;;;;;;5107944;27;43984;-74
2022/08/26 09:04:46;;;;;;;2.30;2.30;;;25.50;67.60;;;;;;5088776;27;45635;-74
2022/08/26 09:07:17;;;;;;;2.72;2.63;;;25.50;66.80;;;;;;5088602;27;43991;-73
2022/08/26 09:09:46;;;;;;;2.25;2.13;;;25.50;66.70;;;;;;5107661;27;43451;-72
2022/08/26 09:12:17;;;;;;;2.30;2.30;;;25.50;67.20;;;;;;5093106;27;43820;-73
2022/08/26 09:14:47;;;;;;;2.10;2.10;;;25.40;67.30;;;;;;5093934;27;43981;-73
2022/08/26 09:17:22;;;;;;;2.20;2.20;;;25.40;67.20;;;;;;5087748;27;44059;-73
2022/08/26 09:19:53;;;;;;;1.90;1.90;;;25.40;66.90;;;;;;5087874;27;43378;-73
2022/08/26 09:22:29;;;;;;;2.30;2.30;;;25.40;67.20;;;;;;5088080;27;44077;-73
2022/08/26 09:24:57;;;;;;;2.30;2.30;;;25.40;67.60;;;;;;5087489;27;43912;-72
2022/08/26 09:27:39;;;;;;;1.90;1.90;;;25.40;67.30;;;;;;5091957;27;43893;-72
2022/08/26 09:30:09;;;;;;;2.03;2.03;;;25.50;66.90;;;;;;5100726;27;43419;-73
2022/08/26 09:32:38;;;;;;;2.43;2.30;;;25.60;66.60;;;;;;5088278;27;43961;-73
2022/08/26 09:35:09;;;;;;;2.60;2.60;;;25.70;66.40;;;;;;5087020;27;44626;-73
2022/08/26 09:37:40;;;;;;;2.20;2.20;;;25.70;66.20;;;;;;5087647;27;43927;-73
2022/08/26 09:40:13;;;;;;;2.10;2.10;;;25.70;66.30;;;;;;5087101;27;43813;-71
2022/08/26 09:42:41;;;;;;;2.20;2.20;;;25.60;66.60;;;;;;5069315;27;43992;-73
2022/08/26 09:45:11;;;;;;;2.13;2.13;;;25.60;66.60;;;;;;5069268;27;45861;-72
2022/08/26 09:47:51;;;;;;;2.42;2.28;;;25.60;66.50;;;;;;5068488;27;44597;-73
2022/08/26 09:50:25;;;;;;;2.33;2.33;;;25.60;66.50;;;;;;5087375;27;43376;-73
2022/08/26 09:53:15;;;;;;;2.00;2.00;;;25.50;67.10;;;;;;5087888;27;43884;-73
2022/08/26 09:55:43;;;;;;;2.40;2.40;;;25.50;67.00;;;;;;5087109;27;43927;-73
2022/08/26 09:58:15;;;;;;;2.30;2.30;;;25.50;66.70;;;;;;5086751;27;43731;-74
2022/08/26 10:00:54;;;;;;;2.10;2.10;;;25.50;66.90;;;;;;5095087;27;43998;-73
2022/08/26 10:03:25;;;;;;;2.08;2.08;;;25.50;67.50;;;;;;5107188;27;44046;-72
2022/08/26 10:05:58;;;;;;;2.10;2.10;;;25.50;67.50;;;;;;5103269;27;45157;-73
2022/08/26 10:08:27;;;;;;;2.17;2.17;;;25.60;67.10;;;;;;5068390;28;44307;-73
2022/08/26 10:10:56;;;;;;;2.15;2.15;;;25.60;66.70;;;;;;5079409;27;44071;-73
2022/08/26 10:13:28;;;;;;;2.03;2.03;;;25.70;66.50;;;;;;5088732;27;43999;-73
2022/08/26 10:16:06;;;;;;;2.05;2.05;;;25.70;66.40;;;;;;5101447;27;44059;-71
2022/08/26 10:18:39;;;;;;;2.10;2.10;;;25.70;66.30;;;;;;5074868;27;44952;-72
2022/08/26 10:21:11;;;;;;;2.28;2.28;;;25.60;66.70;;;;;;5086516;28;43873;-72
2022/08/26 10:23:41;;;;;;;2.20;2.20;;;25.60;66.70;;;;;;5087279;27;43983;-74
2022/08/26 10:26:13;;;;;;;2.10;2.10;;;25.60;66.50;;;;;;5067894;27;45406;-74
2022/08/26 10:28:43;;;;;;;2.20;2.20;;;25.60;66.60;;;;;;5071546;27;44860;-72
2022/08/26 10:31:19;;;;;;;2.38;2.38;;;25.60;66.60;;;;;;5090381;27;43373;-73
2022/08/26 10:33:54;;;;;;;2.58;2.58;;;25.50;66.20;;;;;;5090566;27;43424;-72
2022/08/26 10:39:37;;;;;;;2.83;2.53;;;25.50;66.20;;;;;;5109727;27;43935;-72
2022/08/26 10:42:08;;;;;;;11.90;3.30;;;25.50;66.20;;;;;;5109671;27;44092;-72
2022/08/26 10:44:38;;;;;;;7.23;3.10;;;25.50;65.40;;;;;;5091397;27;44218;-72
2022/08/26 10:47:14;;;;;;;3.50;3.30;;;25.60;65.00;;;;;;5109628;27;44007;-73
2022/08/26 10:49:43;;;;;;;3.25;3.05;;;25.70;64.90;;;;;;5090621;27;44752;-72
2022/08/26 10:52:14;;;;;;;3.13;3.03;;;25.70;64.90;;;;;;5109957;27;43820;-72
2022/08/26 10:54:44;;;;;;;2.80;2.70;;;25.70;65.10;;;;;;5071703;28;44183;-72
2022/08/26 10:57:15;;;;;;;4.35;3.55;;;25.60;65.40;;;;;;5089757;27;43932;-73
2022/08/26 10:59:51;;;;;;;3.13;3.00;;;25.60;65.30;;;;;;5070796;28;44812;-72
2022/08/26 11:02:23;;;;;;;3.75;3.55;;;25.60;65.30;;;;;;5071178;28;44028;-72
2022/08/26 11:04:54;;;;;;;3.07;2.97;;;25.60;65.20;;;;;;5076039;28;44231;-72
2022/08/26 11:07:41;;;;;;;3.40;3.20;;;25.50;65.50;;;;;;5089270;28;44925;-71
2022/08/26 11:10:12;;;;;;;3.28;3.17;;;25.50;65.50;;;;;;5089376;27;43771;-72
2022/08/26 11:12:56;;;;;;;2.90;2.80;;;25.50;65.30;;;;;;5071417;28;43847;-72
2022/08/26 11:15:58;;;;;;;3.00;2.90;;;25.50;65.00;;;;;;5090242;27;44127;-72
2022/08/26 11:18:45;;;;;;;3.03;2.92;;;25.50;65.70;;;;;;5006619;28;44159;-72
2022/08/26 11:22:04;;;;;;;3.13;3.00;;;25.50;65.20;;;;;;5013995;28;43975;-73
2022/08/26 11:24:41;;;;;;;3.38;3.20;;;25.60;64.60;;;;;;5086071;27;43985;-72
2022/08/26 11:27:29;;;;;;;3.22;3.13;;;25.80;64.00;;;;;;5109481;27;44114;-72
2022/08/26 11:30:00;;;;;;;3.90;3.20;;;25.90;63.80;;;;;;5089665;27;44563;-72
2022/08/26 11:32:47;;;;;;;2.80;2.70;;;25.90;63.50;;;;;;5108886;27;43394;-72
2022/08/26 11:35:46;;;;;;;3.30;3.20;;;25.90;63.60;;;;;;5101288;27;43968;-73
2022/08/26 11:38:17;;;;;;;3.20;3.00;;;25.80;63.90;;;;;;5089497;27;44088;-73
2022/08/26 11:41:11;;;;;;;3.00;2.80;;;25.80;63.60;;;;;;5070343;28;45811;-72
2022/08/26 11:43:39;;;;;;;3.40;3.20;;;25.70;63.70;;;;;;5084185;27;44225;-72
2022/08/26 11:46:09;;;;;;;3.10;3.00;;;25.70;64.00;;;;;;5089085;27;43999;-72
2022/08/26 11:48:38;;;;;;;3.10;2.90;;;25.60;64.00;;;;;;5071140;27;43933;-73
2022/08/26 11:51:07;;;;;;;3.27;3.00;;;25.60;63.70;;;;;;5088814;27;43701;-73
2022/08/26 11:53:36;;;;;;;3.30;3.20;;;25.70;63.60;;;;;;5105996;27;43929;-72
2022/08/26 11:56:09;;;;;;;3.45;3.22;;;25.60;63.40;;;;;;5108759;27;43966;-73
2022/08/26 11:58:41;;;;;;;4.23;3.83;;;25.60;64.00;;;;;;5104415;27;43372;-73
2022/08/26 12:01:10;;;;;;;3.85;3.60;;;25.60;62.20;;;;;;5070002;28;45283;-72
2022/08/26 12:03:40;;;;;;;3.88;3.50;;;25.70;62.70;;;;;;5088611;27;43773;-74
2022/08/26 12:06:13;;;;;;;5.18;3.95;;;25.60;62.50;;;;;;5075350;27;44348;-72
2022/08/26 12:08:42;;;;;;;5.20;4.30;;;25.60;62.80;;;;;;5108480;27;44010;-72
2022/08/26 12:11:13;;;;;;;4.60;4.32;;;25.70;62.60;;;;;;5108158;27;45015;-73
2022/08/26 12:13:41;;;;;;;4.72;4.50;;;25.80;61.60;;;;;;5095085;27;43959;-72
2022/08/26 12:16:12;;;;;;;4.90;4.57;;;26.00;61.00;;;;;;5076383;27;43371;-73
2022/08/26 12:18:40;;;;;;;4.57;4.38;;;26.10;61.00;;;;;;5089301;27;43760;-71
2022/08/26 12:21:13;;;;;;;4.65;4.35;;;26.00;60.90;;;;;;5088628;27;43937;-73
2022/08/26 12:23:44;;;;;;;5.28;4.97;;;26.00;61.60;;;;;;5070113;27;44430;-72
2022/08/26 12:26:22;;;;;;;5.03;4.73;;;25.90;61.00;;;;;;5102860;27;43980;-72
2022/08/26 12:28:53;;;;;;;5.15;4.95;;;25.90;60.50;;;;;;5107819;27;44070;-73
2022/08/26 12:31:24;;;;;;;5.60;5.30;;;25.90;60.50;;;;;;5089532;27;45702;-72
2022/08/26 12:33:52;;;;;;;5.63;5.33;;;25.90;59.60;;;;;;5107745;27;43845;-73
2022/08/26 12:36:23;;;;;;;5.38;4.97;;;25.80;60.30;;;;;;5108016;27;43966;-72
2022/08/26 12:38:51;;;;;;;5.57;5.28;;;25.80;59.40;;;;;;5108270;27;43988;-72
2022/08/26 12:41:45;;;;;;;5.57;5.15;;;25.90;58.90;;;;;;5107768;27;43620;-73
2022/08/26 12:44:45;;;;;;;5.72;5.43;;;25.80;59.40;;;;;;5107848;27;43877;-72
2022/08/26 12:47:24;;;;;;;6.53;5.22;;;25.80;61.30;;;;;;5108366;27;43419;-73
2022/08/26 12:50:10;;;;;;;5.50;5.20;;;25.80;61.90;;;;;;5087582;27;43945;-71
2022/08/26 12:52:41;;;;;;;5.20;4.80;;;25.90;61.60;;;;;;5087516;28;43965;-72
2022/08/26 12:55:19;;;;;;;5.20;5.00;;;26.00;61.10;;;;;;5087701;28;43399;-72
2022/08/26 12:57:48;;;;;;;5.03;4.93;;;26.00;61.40;;;;;;5074952;28;43948;-73
2022/08/26 13:00:30;;;;;;;5.30;5.05;;;26.00;61.40;;;;;;5088038;28;43991;-72
2022/08/26 13:02:58;;;;;;;5.37;5.17;;;25.90;61.90;;;;;;5107298;27;43941;-72
2022/08/26 13:05:27;;;;;;;5.13;4.82;;;25.90;62.30;;;;;;5089108;27;45685;-72
2022/08/26 13:08:15;;;;;;;6.07;5.63;;;25.90;62.20;;;;;;5087865;27;43443;-72
2022/08/26 13:10:45;;;;;;;6.70;5.57;;;25.90;62.40;;;;;;5090373;27;43848;-71
2022/08/26 13:13:14;;;;;;;6.45;5.88;;;25.80;62.40;;;;;;5107390;27;45169;-72
2022/08/26 13:15:43;;;;;;;6.03;5.40;;;25.70;62.80;;;;;;5107338;27;43447;-72
2022/08/26 13:18:11;;;;;;;6.03;5.53;;;25.70;62.80;;;;;;5107206;27;43971;-73